Time;durP1;ratioP1;P1;durP2;ratioP2;P2;SDS_P1;SDS_P2;PMS_P1;PMS_P2;Temp;Humidity;BMP_temperature;BMP_pressure;BME280_temperature;BME280_humidity;BME280_pressure;Samples;Min_cycle;Max_cycle;Signal;HPM_P1;HPM_P2
2021/10/13 00:05:33;;;;;;;52.90;29.93;;;;;;;7.75;100.00;99964.28;712927;1203;113993;-75
2021/10/13 00:20:35;;;;;;;14.17;7.27;;;;;;;7.66;100.00;99971.07;713318;1203;113584;-75
2021/10/13 00:35:37;;;;;;;14.75;7.98;;;;;;;7.25;100.00;99980.44;712796;1202;114139;-75
2021/10/13 00:50:40;;;;;;;7.95;5.03;;;;;;;7.00;100.00;99990.99;713481;1202;115367;-76
2021/10/13 01:06:06;;;;;;;10.53;5.87;;;;;;;6.85;100.00;99988.75;712985;1202;114174;-76
2021/10/13 01:21:25;;;;;;;22.90;12.95;;;;;;;6.70;100.00;100002.02;713152;1194;115050;-75
2021/10/13 01:36:38;;;;;;;9.50;5.28;;;;;;;6.55;100.00;100000.59;712725;1206;114512;-75
2021/10/13 01:51:47;;;;;;;12.75;6.30;;;;;;;6.25;100.00;99999.33;712762;1205;113813;-77
2021/10/13 02:06:51;;;;;;;13.60;8.05;;;;;;;5.99;100.00;100013.34;712966;1205;115112;-75
2021/10/13 02:21:54;;;;;;;8.93;5.97;;;;;;;5.80;100.00;100019.01;712804;1202;114653;-75
2021/10/13 02:36:56;;;;;;;20.78;9.63;;;;;;;5.83;100.00;100044.84;713191;1202;114933;-77
2021/10/13 02:52:07;;;;;;;54.15;21.45;;;;;;;5.54;100.00;100048.68;713209;1202;114284;-75
2021/10/13 03:07:19;;;;;;;22.05;12.25;;;;;;;5.14;100.00;100045.31;712872;1203;115332;-73
2021/10/13 03:22:23;;;;;;;15.55;8.58;;;;;;;5.01;100.00;100060.10;712833;1202;114565;-76
2021/10/13 03:37:25;;;;;;;10.38;5.70;;;;;;;4.87;100.00;100070.61;713072;1202;115081;-75
2021/10/13 03:52:27;;;;;;;10.03;5.27;;;;;;;4.91;100.00;100093.70;712950;1202;114745;-75
2021/10/13 04:07:29;;;;;;;12.67;5.43;;;;;;;4.98;100.00;100097.54;713238;1202;114194;-73
2021/10/13 04:22:32;;;;;;;9.45;5.50;;;;;;;5.12;100.00;100100.97;715527;1203;115198;-73
2021/10/13 04:37:34;;;;;;;10.80;6.50;;;;;;;5.27;100.00;100105.13;714784;1203;115386;-74
2021/10/13 04:52:36;;;;;;;12.03;6.40;;;;;;;5.34;100.00;100123.74;713247;1203;114079;-74
2021/10/13 05:07:38;;;;;;;25.50;10.80;;;;;;;5.28;100.00;100131.99;713855;1203;115110;-74
2021/10/13 05:22:41;;;;;;;17.37;9.40;;;;;;;5.48;100.00;100143.63;713184;1179;114154;-73
2021/10/13 05:37:43;;;;;;;21.03;11.00;;;;;;;5.53;100.00;100161.50;712979;1202;115552;-73
2021/10/13 05:52:45;;;;;;;24.28;15.45;;;;;;;5.65;100.00;100194.51;713363;1202;114565;-73
2021/10/13 06:08:03;;;;;;;36.80;15.27;;;;;;;5.86;100.00;100217.38;713275;1206;114296;-73
2021/10/13 06:23:06;;;;;;;37.00;17.43;;;;;;;5.95;100.00;100235.81;713405;1203;115368;-78
2021/10/13 06:38:08;;;;;;;14.60;8.63;;;;;;;6.29;100.00;100253.48;714323;1202;114603;-80
2021/10/13 06:53:11;;;;;;;14.70;9.20;;;;;;;6.45;100.00;100271.46;714672;1203;115632;-79
2021/10/13 07:08:13;;;;;;;14.67;6.30;;;;;;;6.91;100.00;100280.36;713399;1180;115759;-78
2021/10/13 07:23:16;;;;;;;29.27;14.50;;;;;;;7.12;100.00;100304.87;713062;1203;113903;-79
2021/10/13 07:38:20;;;;;;;53.20;23.70;;;;;;;7.33;100.00;100318.11;713342;1181;114193;-78
2021/10/13 07:53:24;;;;;;;16.08;8.15;;;;;;;7.65;100.00;100324.50;713900;1202;114683;-77
2021/10/13 08:08:26;;;;;;;31.10;18.53;;;;;;;7.68;100.00;100333.88;714300;1202;114795;-77
2021/10/13 08:23:29;;;;;;;28.18;16.28;;;;;;;7.86;100.00;100340.32;713245;1206;114260;-77
2021/10/13 08:38:32;;;;;;;30.05;12.90;;;;;;;8.15;100.00;100345.92;712994;1180;115348;-80
2021/10/13 08:53:35;;;;;;;11.93;8.53;;;;;;;8.74;100.00;100358.91;713093;1180;114432;-78
2021/10/13 09:09:12;;;;;;;28.00;13.00;;;;;;;9.73;100.00;100375.33;713255;1202;115602;-79
2021/10/13 09:24:15;;;;;;;27.87;13.20;;;;;;;10.09;100.00;100385.47;712908;1202;114627;-80
2021/10/13 09:39:19;;;;;;;16.83;9.77;;;;;;;11.06;100.00;100385.02;712895;1202;114898;-80
2021/10/13 09:54:26;;;;;;;5.85;3.25;;;;;;;11.64;100.00;100394.72;712904;1205;115704;-80
2021/10/13 10:09:28;;;;;;;11.67;5.67;;;;;;;11.76;100.00;100408.54;712837;1202;114569;-78
2021/10/13 10:24:34;;;;;;;16.53;9.33;;;;;;;12.28;100.00;100407.36;712941;1203;115781;-80
2021/10/13 10:39:53;;;;;;;13.80;8.20;;;;;;;12.42;100.00;100425.31;712946;1202;115679;-81
2021/10/13 10:55:07;;;;;;;11.28;6.35;;;;;;;14.32;100.00;100429.80;713218;1202;115915;-80
2021/10/13 11:10:12;;;;;;;7.48;4.55;;;;;;;14.75;90.59;100441.23;713688;1206;114555;-80
2021/10/13 11:25:17;;;;;;;13.68;6.95;;;;;;;14.94;89.67;100449.92;713317;1206;114386;-80
2021/10/13 11:40:21;;;;;;;9.63;5.03;;;;;;;15.05;84.02;100440.87;713607;1202;114815;-78
2021/10/13 11:55:28;;;;;;;33.63;15.00;;;;;;;14.61;84.83;100440.01;718660;1202;115985;-77
2021/10/13 12:10:49;;;;;;;12.28;6.20;;;;;;;14.68;82.89;100445.52;712538;1203;114826;-76
2021/10/13 12:25:51;;;;;;;29.73;11.53;;;;;;;14.11;81.71;100441.53;712430;1191;114505;-76
2021/10/13 12:41:05;;;;;;;20.80;7.65;;;;;;;14.89;83.35;100452.21;712565;1203;114387;-76
2021/10/13 12:56:09;;;;;;;14.95;7.15;;;;;;;14.94;80.21;100465.77;712592;1202;115221;-77
2021/10/13 13:11:12;;;;;;;39.75;14.95;;;;;;;16.11;80.19;100468.42;712545;1202;114599;-78
2021/10/13 13:26:14;;;;;;;15.07;7.30;;;;;;;14.99;77.69;100489.86;712866;1183;115765;-78
2021/10/13 13:41:17;;;;;;;15.00;10.53;;;;;;;13.73;77.87;100496.27;712634;1206;114189;-76
2021/10/13 13:56:20;;;;;;;16.13;7.13;;;;;;;13.20;79.27;100516.28;712790;1180;115787;-76
2021/10/13 14:11:25;;;;;;;9.15;4.90;;;;;;;13.11;79.91;100525.88;712538;1202;115474;-76
2021/10/13 14:26:28;;;;;;;30.70;13.30;;;;;;;16.80;73.19;100534.17;712339;1202;115245;-73
2021/10/13 14:41:30;;;;;;;80.43;37.40;;;;;;;22.40;69.05;100552.17;712394;1203;114761;-73
2021/10/13 14:56:34;;;;;;;10.53;7.20;;;;;;;18.63;67.56;100568.23;712413;1206;115273;-72
2021/10/13 15:11:38;;;;;;;11.37;6.53;;;;;;;18.74;68.50;100588.20;712919;1202;114404;-81
2021/10/13 15:26:41;;;;;;;89.30;35.10;;;;;;;14.91;69.80;100619.27;712464;1178;115183;-80
2021/10/13 15:41:48;;;;;;;130.55;56.93;;;;;;;13.30;73.84;100613.70;714365;1205;116429;-80
2021/10/13 15:57:10;;;;;;;52.90;30.47;;;;;;;11.60;76.63;100624.56;713215;1206;114946;-79
2021/10/13 16:12:13;;;;;;;64.28;30.08;;;;;;;10.92;79.83;100645.25;712711;1202;116008;-77
2021/10/13 16:27:16;;;;;;;95.83;43.63;;;;;;;10.08;87.26;100690.48;712623;1206;114328;-72
2021/10/13 16:42:18;;;;;;;67.63;33.80;;;;;;;9.70;89.92;100704.81;712553;1179;115140;-72
2021/10/13 16:57:22;;;;;;;103.10;38.85;;;;;;;9.92;92.93;100710.05;712659;1178;114089;-72
2021/10/13 17:12:25;;;;;;;77.38;36.45;;;;;;;9.93;94.43;100710.89;712891;1178;114189;-78
2021/10/13 17:27:27;;;;;;;57.63;26.67;;;;;;;9.73;96.17;100718.52;712753;1203;114601;-71
2021/10/13 17:42:32;;;;;;;89.95;38.80;;;;;;;9.56;97.43;100739.95;712760;1180;114454;-70
2021/10/13 17:57:34;;;;;;;68.17;31.33;;;;;;;9.37;99.24;100756.21;713255;1202;114567;-76
2021/10/13 18:12:36;;;;;;;55.58;25.30;;;;;;;8.88;100.00;100766.79;712974;1180;114704;-74
2021/10/13 18:27:39;;;;;;;43.13;19.45;;;;;;;8.57;100.00;100784.69;713257;1180;115687;-71
2021/10/13 18:42:42;;;;;;;30.30;14.65;;;;;;;8.37;100.00;100803.53;713070;1202;114676;-71
2021/10/13 18:57:45;;;;;;;42.53;22.23;;;;;;;8.35;100.00;100815.89;712733;1183;114555;-72
2021/10/13 19:12:48;;;;;;;61.93;27.03;;;;;;;8.18;100.00;100830.14;714059;1202;115236;-74
2021/10/13 19:27:54;;;;;;;101.53;40.37;;;;;;;7.89;100.00;100833.83;716259;1202;115778;-73
2021/10/13 19:43:02;;;;;;;144.13;52.90;;;;;;;7.45;100.00;100853.30;714850;1202;115524;-72
2021/10/13 19:58:08;;;;;;;69.10;37.40;;;;;;;7.14;100.00;100871.79;712995;1179;114634;-72
2021/10/13 20:13:13;;;;;;;37.50;16.80;;;;;;;6.78;100.00;100881.02;712933;1202;114628;-72
2021/10/13 20:28:18;;;;;;;26.27;14.37;;;;;;;6.62;100.00;100886.33;713125;1206;115902;-72
2021/10/13 20:43:21;;;;;;;24.15;12.15;;;;;;;6.45;100.00;100883.93;712714;1202;115747;-72
2021/10/13 20:58:24;;;;;;;19.23;9.65;;;;;;;6.20;100.00;100879.38;712900;1202;115247;-72
2021/10/13 21:13:26;;;;;;;18.23;9.33;;;;;;;5.94;100.00;100882.58;713514;1202;114133;-73
2021/10/13 21:28:29;;;;;;;23.88;11.60;;;;;;;5.58;100.00;100878.60;713310;1203;114049;-73
2021/10/13 21:43:32;;;;;;;25.13;9.75;;;;;;;5.30;100.00;100869.73;713266;1202;115284;-72
2021/10/13 21:58:34;;;;;;;27.70;14.37;;;;;;;4.98;100.00;100866.36;713528;1202;115392;-71
2021/10/13 22:13:37;;;;;;;22.13;10.40;;;;;;;4.65;100.00;100859.48;713084;1202;115638;-73
2021/10/13 22:28:39;;;;;;;21.00;11.10;;;;;;;4.47;100.00;100856.96;713487;1206;115084;-71
2021/10/13 22:43:42;;;;;;;19.37;9.47;;;;;;;4.27;100.00;100875.34;713093;1177;114895;-71
2021/10/13 22:58:44;;;;;;;27.57;11.83;;;;;;;4.12;100.00;100870.03;712791;1203;113795;-72
2021/10/13 23:13:46;;;;;;;19.70;10.28;;;;;;;3.95;100.00;100877.85;712469;1192;113973;-72
2021/10/13 23:28:48;;;;;;;20.70;10.08;;;;;;;3.80;100.00;100882.90;712752;1203;113990;-71
2021/10/13 23:43:50;;;;;;;22.67;11.17;;;;;;;3.73;100.00;100878.91;712552;1203;114275;-74
2021/10/13 23:58:53;;;;;;;18.40;11.10;;;;;;;3.61;100.00;100874.34;712467;1206;114310;-72
